Time;durP1;ratioP1;P1;durP2;ratioP2;P2;SDS_P1;SDS_P2;PMS_P1;PMS_P2;Temp;Humidity;BMP_temperature;BMP_pressure;BME280_temperature;BME280_humidity;BME280_pressure;Samples;Min_cycle;Max_cycle;Signal;HPM_P1;HPM_P2
2022/06/14 00:01:23;;;;;;;8.20;1.88;;;12.70;99.90;;;;;;4890817;29;20423;-58
2022/06/14 00:03:50;;;;;;;7.97;2.10;;;12.70;99.90;;;;;;4892074;29;20397;-57
2022/06/14 00:06:23;;;;;;;9.20;1.83;;;12.70;99.90;;;;;;4895339;29;20045;-57
2022/06/14 00:08:51;;;;;;;6.82;1.92;;;12.60;99.90;;;;;;4894294;29;20049;-58
2022/06/14 00:11:27;;;;;;;7.72;1.63;;;12.60;99.90;;;;;;4895844;29;20528;-57
2022/06/14 00:13:57;;;;;;;10.23;2.20;;;12.60;99.90;;;;;;4891951;29;20549;-57
2022/06/14 00:16:26;;;;;;;;;;;12.60;99.90;;;;;;4896044;29;20044;-56
2022/06/14 00:18:54;;;;;;;5.70;1.73;;;12.50;99.90;;;;;;4893744;29;19938;-56
2022/06/14 00:21:22;;;;;;;4.68;1.85;;;12.50;99.90;;;;;;4894013;29;20044;-57
2022/06/14 00:23:50;;;;;;;6.72;2.03;;;12.50;99.90;;;;;;4893906;29;20049;-56
2022/06/14 00:26:18;;;;;;;9.10;2.35;;;12.50;99.90;;;;;;4894205;29;20055;-56
2022/06/14 00:28:45;;;;;;;12.77;2.90;;;12.40;99.90;;;;;;4892615;29;20049;-57
2022/06/14 00:31:20;;;;;;;8.07;2.13;;;12.40;99.90;;;;;;4896016;29;20045;-58
2022/06/14 00:33:48;;;;;;;6.40;2.25;;;12.40;99.90;;;;;;4895662;29;20051;-56
2022/06/14 00:36:22;;;;;;;8.48;2.50;;;12.40;99.90;;;;;;4895026;29;20397;-57
2022/06/14 00:38:50;;;;;;;6.45;2.00;;;12.30;99.90;;;;;;4897991;29;20512;-57
2022/06/14 00:41:38;;;;;;;9.55;2.97;;;12.30;99.90;;;;;;4894275;29;20055;-57
2022/06/14 00:44:10;;;;;;;21.83;2.90;;;12.20;99.90;;;;;;4884873;29;20053;-57
2022/06/14 00:47:00;;;;;;;14.38;3.38;;;12.30;99.90;;;;;;4896143;29;20745;-57
2022/06/14 00:49:43;;;;;;;13.98;3.55;;;12.20;99.90;;;;;;4891164;29;20044;-58
2022/06/14 00:52:26;;;;;;;9.43;4.22;;;12.20;99.90;;;;;;4879062;29;20056;-58
2022/06/14 00:55:00;;;;;;;24.08;4.03;;;12.10;99.90;;;;;;4893315;29;20461;-57
2022/06/14 00:57:34;;;;;;;8.70;3.28;;;12.10;99.90;;;;;;4894146;29;20044;-58
2022/06/14 01:00:09;;;;;;;11.77;3.80;;;12.00;99.90;;;;;;4894793;29;20057;-56
2022/06/14 01:02:50;;;;;;;8.77;3.65;;;12.00;99.90;;;;;;4893650;29;20054;-57
2022/06/14 01:06:05;;;;;;;7.68;3.08;;;12.00;99.90;;;;;;4893518;29;20049;-56
2022/06/14 01:08:23;;;;;;;12.38;2.92;;;12.00;99.90;;;;;;4894802;29;20053;-56
2022/06/14 01:10:50;;;;;;;9.07;2.75;;;11.90;99.90;;;;;;4894044;29;20056;-56
2022/06/14 01:13:20;;;;;;;8.98;3.15;;;11.90;99.90;;;;;;4887786;29;20053;-56
2022/06/14 01:15:50;;;;;;;9.82;3.25;;;11.90;99.90;;;;;;4892965;29;20053;-59
2022/06/14 01:18:18;;;;;;;9.85;3.28;;;11.80;99.90;;;;;;4894991;29;20090;-56
2022/06/14 01:20:45;;;;;;;9.52;3.05;;;11.80;99.90;;;;;;4893540;29;20044;-57
2022/06/14 01:23:16;;;;;;;8.65;3.25;;;11.80;99.90;;;;;;4895955;29;20051;-57
2022/06/14 01:25:55;;;;;;;6.25;2.60;;;11.80;99.90;;;;;;4894093;29;20064;-56
2022/06/14 01:28:24;;;;;;;6.47;3.08;;;11.70;99.90;;;;;;4894287;29;20055;-57
2022/06/14 01:30:53;;;;;;;8.85;2.97;;;11.70;99.90;;;;;;4893357;29;20063;-57
2022/06/14 01:33:30;;;;;;;7.47;3.13;;;11.70;99.90;;;;;;4897217;29;20056;-56
2022/06/14 01:36:02;;;;;;;8.90;2.95;;;11.70;99.90;;;;;;4890294;29;20537;-58
2022/06/14 01:38:30;;;;;;;8.57;2.85;;;11.70;99.90;;;;;;4882857;29;20045;-56
2022/06/14 01:41:04;;;;;;;5.82;3.45;;;11.70;99.90;;;;;;4879506;29;20075;-55
2022/06/14 01:43:51;;;;;;;8.27;2.75;;;11.80;99.90;;;;;;4890369;29;20056;-56
2022/06/14 01:46:25;;;;;;;8.13;3.30;;;11.80;99.90;;;;;;4896858;29;20528;-58
2022/06/14 01:52:19;;;;;;;;;;;11.70;99.90;;;;;;4895962;29;20417;-58
2022/06/14 01:55:00;;;;;;;7.78;3.08;;;11.70;99.90;;;;;;4888330;29;20375;-58
2022/06/14 01:57:58;;;;;;;8.32;2.75;;;11.70;99.90;;;;;;4894447;29;20053;-58
2022/06/14 02:00:35;;;;;;;12.52;3.42;;;11.70;99.90;;;;;;4896420;29;20052;-58
2022/06/14 02:05:59;;;;;;;6.43;2.35;;;11.70;99.90;;;;;;4897202;29;20045;-58
2022/06/14 02:08:32;;;;;;;8.38;3.00;;;11.70;99.90;;;;;;4897483;29;20060;-58
2022/06/14 02:11:10;;;;;;;11.80;3.10;;;11.70;99.90;;;;;;4893966;29;20055;-58
2022/06/14 02:13:48;;;;;;;10.63;2.67;;;11.70;99.90;;;;;;4896197;29;20040;-58
2022/06/14 02:16:28;;;;;;;5.53;2.63;;;11.80;99.90;;;;;;4896638;29;20052;-58
2022/06/14 02:19:13;;;;;;;7.40;2.92;;;11.70;99.90;;;;;;4890475;29;20045;-58
2022/06/14 02:21:45;;;;;;;5.15;2.20;;;11.70;99.90;;;;;;4896002;29;20409;-59
2022/06/14 02:24:31;;;;;;;11.55;3.28;;;11.70;99.90;;;;;;4893765;29;20049;-58
2022/06/14 02:27:16;;;;;;;12.40;3.17;;;11.70;99.90;;;;;;4895665;29;20072;-58
2022/06/14 02:29:49;;;;;;;5.72;2.05;;;11.70;99.90;;;;;;4897340;29;20588;-57
2022/06/14 02:32:22;;;;;;;6.47;2.50;;;11.70;99.90;;;;;;4894382;29;20072;-55
2022/06/14 02:34:57;;;;;;;10.68;3.10;;;11.70;99.90;;;;;;4897320;29;20055;-58
2022/06/14 02:37:41;;;;;;;8.90;3.13;;;11.70;99.90;;;;;;4896701;29;20063;-59
2022/06/14 02:40:24;;;;;;;7.28;2.63;;;11.70;99.90;;;;;;4897269;29;20048;-57
2022/06/14 02:43:21;;;;;;;9.23;2.80;;;11.70;99.90;;;;;;4895934;29;20397;-56
2022/06/14 02:45:54;;;;;;;8.27;3.22;;;11.70;99.90;;;;;;4896313;29;20049;-57
2022/06/14 02:48:29;;;;;;;6.05;3.22;;;11.70;99.90;;;;;;4880879;29;20068;-57
2022/06/14 02:51:08;;;;;;;9.90;3.25;;;11.60;99.90;;;;;;4887852;29;20045;-57
2022/06/14 02:53:44;;;;;;;8.63;3.80;;;11.60;99.90;;;;;;4877135;29;20067;-58
2022/06/14 02:56:43;;;;;;;5.53;2.38;;;11.60;99.90;;;;;;4883353;29;20045;-58
2022/06/14 02:59:19;;;;;;;5.28;2.75;;;11.60;99.90;;;;;;4894600;29;20048;-57
2022/06/14 03:02:01;;;;;;;9.25;2.88;;;11.60;99.90;;;;;;4896872;29;20524;-56
2022/06/14 03:04:43;;;;;;;7.47;2.40;;;11.70;99.90;;;;;;4894736;29;20064;-58
2022/06/14 03:07:23;;;;;;;6.20;2.47;;;11.60;99.90;;;;;;4895806;29;20051;-58
2022/06/14 03:09:51;;;;;;;11.50;2.65;;;11.60;99.90;;;;;;4892546;29;20108;-59
2022/06/14 03:12:45;;;;;;;6.75;2.22;;;11.70;99.90;;;;;;4894358;29;20061;-58
2022/06/14 03:15:16;;;;;;;8.13;3.00;;;11.60;99.90;;;;;;4903442;29;20056;-59
2022/06/14 03:17:50;;;;;;;8.63;2.90;;;11.60;99.90;;;;;;4890091;29;20048;-58
2022/06/14 03:20:18;;;;;;;10.43;3.72;;;11.50;99.90;;;;;;4894432;29;20041;-58
2022/06/14 03:23:11;;;;;;;5.82;3.05;;;11.50;99.90;;;;;;4892534;29;20524;-57
2022/06/14 03:25:57;;;;;;;9.73;3.35;;;11.50;99.90;;;;;;4891439;29;20529;-58
2022/06/14 03:28:34;;;;;;;5.50;2.60;;;11.50;99.90;;;;;;4896488;29;20060;-58
2022/06/14 03:31:12;;;;;;;5.03;2.28;;;11.40;99.90;;;;;;4896288;29;20044;-59
2022/06/14 03:33:45;;;;;;;5.70;2.45;;;11.40;99.90;;;;;;4896508;29;20056;-58
2022/06/14 03:36:14;;;;;;;9.13;2.67;;;11.40;99.90;;;;;;4896256;29;20044;-59
2022/06/14 03:38:47;;;;;;;8.88;2.10;;;11.40;99.90;;;;;;4895103;29;20049;-58
2022/06/14 03:41:19;;;;;;;5.70;2.25;;;11.40;99.90;;;;;;4894405;29;20134;-58
2022/06/14 03:43:49;;;;;;;10.05;2.50;;;11.40;99.90;;;;;;4893308;29;20055;-59
2022/06/14 03:46:19;;;;;;;;;;;11.40;99.90;;;;;;4894992;29;20048;-58
2022/06/14 03:48:55;;;;;;;12.23;2.67;;;11.40;99.90;;;;;;4891646;29;19923;-58
2022/06/14 03:52:00;;;;;;;5.15;2.17;;;11.40;99.90;;;;;;4894948;29;20067;-57
2022/06/14 03:54:30;;;;;;;11.60;2.65;;;11.40;99.90;;;;;;4895275;29;20404;-58
2022/06/14 03:57:01;;;;;;;3.22;1.60;;;11.40;99.90;;;;;;4893639;29;20060;-57
2022/06/14 03:59:37;;;;;;;5.00;1.95;;;11.40;99.90;;;;;;4895924;29;20512;-57
2022/06/14 04:02:54;;;;;;;6.13;2.08;;;11.40;99.90;;;;;;4894055;29;20048;-58
2022/06/14 04:05:32;;;;;;;5.82;2.15;;;11.40;99.90;;;;;;4884735;29;20059;-57
2022/06/14 04:08:10;;;;;;;7.38;2.42;;;11.40;99.90;;;;;;4895791;29;20056;-56
2022/06/14 04:11:02;;;;;;;6.45;2.13;;;11.40;99.90;;;;;;4887554;29;20052;-59
2022/06/14 04:13:48;;;;;;;7.78;1.80;;;11.40;99.90;;;;;;4893449;29;20056;-58
2022/06/14 04:16:28;;;;;;;4.80;1.85;;;11.50;99.90;;;;;;4896100;29;20056;-58
2022/06/14 04:19:03;;;;;;;3.70;1.92;;;11.40;99.90;;;;;;4894253;29;20071;-58
2022/06/14 04:21:54;;;;;;;5.63;2.33;;;11.40;99.90;;;;;;4893138;29;20060;-59
2022/06/14 04:24:55;;;;;;;9.00;1.80;;;11.40;99.90;;;;;;4892244;29;20064;-58
2022/06/14 04:27:53;;;;;;;4.53;2.08;;;11.40;99.90;;;;;;4886387;29;20064;-56
2022/06/14 04:30:53;;;;;;;6.50;2.00;;;11.40;99.90;;;;;;4877278;29;20072;-59
2022/06/14 04:33:33;;;;;;;6.32;1.90;;;11.40;99.90;;;;;;4875811;29;20528;-59
2022/06/14 04:36:22;;;;;;;8.20;1.75;;;11.50;99.90;;;;;;4889705;29;20044;-58
2022/06/14 04:38:59;;;;;;;3.08;1.80;;;11.50;99.90;;;;;;4895891;29;20061;-58
2022/06/14 04:41:31;;;;;;;4.53;1.83;;;11.50;99.90;;;;;;4893064;29;20041;-58
2022/06/14 04:44:10;;;;;;;3.92;1.77;;;11.50;99.90;;;;;;4894147;29;20053;-58
2022/06/14 04:46:47;;;;;;;7.72;2.10;;;11.60;99.90;;;;;;4894234;29;20045;-59
2022/06/14 04:49:24;;;;;;;6.13;1.70;;;11.60;99.90;;;;;;4873772;29;20247;-58
2022/06/14 04:51:56;;;;;;;8.13;2.47;;;11.60;99.90;;;;;;4885665;29;20533;-57
2022/06/14 04:54:45;;;;;;;8.52;1.77;;;11.60;99.90;;;;;;4894313;29;20048;-59
2022/06/14 04:57:31;;;;;;;5.45;1.75;;;11.70;99.90;;;;;;4894590;29;20056;-58
2022/06/14 05:00:18;;;;;;;4.97;1.70;;;11.70;99.90;;;;;;4880443;29;20077;-58
2022/06/14 05:03:07;;;;;;;5.25;1.83;;;11.70;99.90;;;;;;4891108;29;20052;-58
2022/06/14 05:05:50;;;;;;;4.72;1.52;;;11.70;99.90;;;;;;4876813;29;20063;-58
2022/06/14 05:08:26;;;;;;;6.40;2.25;;;11.80;99.90;;;;;;4891684;29;20065;-58
2022/06/14 05:11:19;;;;;;;5.82;2.03;;;11.80;99.90;;;;;;4893054;29;20057;-57
2022/06/14 05:13:46;;;;;;;9.23;2.63;;;11.80;99.90;;;;;;4890973;29;20044;-58
2022/06/14 05:16:19;;;;;;;5.45;1.60;;;11.80;99.90;;;;;;4892409;29;20055;-57
2022/06/14 05:18:58;;;;;;;4.00;1.40;;;11.90;99.90;;;;;;4891816;29;20052;-57
2022/06/14 05:21:33;;;;;;;3.38;1.50;;;12.00;99.90;;;;;;4884731;29;20060;-58
2022/06/14 05:24:01;;;;;;;6.25;1.58;;;12.00;99.90;;;;;;4893064;29;20079;-57
2022/06/14 05:26:54;;;;;;;4.53;1.63;;;12.10;99.90;;;;;;4892132;29;20052;-58
2022/06/14 05:29:46;;;;;;;4.43;1.77;;;12.10;99.90;;;;;;4891823;29;20057;-56
2022/06/14 05:32:26;;;;;;;4.53;1.40;;;12.20;99.90;;;;;;4893930;29;20043;-58
2022/06/14 05:35:17;;;;;;;7.90;2.30;;;12.20;99.90;;;;;;4886318;29;20056;-58
2022/06/14 05:37:52;;;;;;;6.03;1.55;;;12.30;99.90;;;;;;4883395;29;20045;-58
2022/06/14 05:41:03;;;;;;;7.50;1.98;;;12.30;99.90;;;;;;4880084;29;20059;-58
2022/06/14 05:43:39;;;;;;;5.18;1.63;;;12.40;99.90;;;;;;4830122;29;20812;-57
2022/06/14 05:46:12;;;;;;;3.45;1.55;;;12.40;99.90;;;;;;4871090;29;20056;-58
2022/06/14 05:48:56;;;;;;;3.90;1.70;;;12.40;99.90;;;;;;4886562;29;20044;-58
2022/06/14 05:51:31;;;;;;;3.50;1.88;;;12.40;99.90;;;;;;4875812;29;20044;-58
2022/06/14 05:54:10;;;;;;;5.28;2.00;;;12.50;99.90;;;;;;4889346;29;20060;-56
2022/06/14 05:56:42;;;;;;;3.75;1.95;;;12.50;99.90;;;;;;4893254;29;20386;-58
2022/06/14 05:59:37;;;;;;;3.33;1.33;;;12.50;99.90;;;;;;4889808;29;20079;-58
2022/06/14 06:02:14;;;;;;;4.20;1.58;;;12.60;99.90;;;;;;4882398;29;20059;-58
2022/06/14 06:04:47;;;;;;;7.75;1.70;;;12.60;99.90;;;;;;4888140;29;20049;-58
2022/06/14 06:07:25;;;;;;;4.68;1.45;;;12.60;99.90;;;;;;4877547;29;20061;-58
2022/06/14 06:10:10;;;;;;;3.42;1.55;;;12.60;99.90;;;;;;4893671;29;20504;-58
2022/06/14 06:13:03;;;;;;;7.40;1.80;;;12.60;99.90;;;;;;4893751;29;20486;-58
2022/06/14 06:15:46;;;;;;;7.55;2.15;;;12.50;99.90;;;;;;4876503;29;20572;-58
2022/06/14 06:18:20;;;;;;;9.80;3.13;;;12.50;99.90;;;;;;4886586;29;20048;-56
2022/06/14 06:21:03;;;;;;;6.53;2.88;;;12.50;99.90;;;;;;4891415;29;20172;-58
2022/06/14 06:23:38;;;;;;;5.88;2.03;;;12.50;99.90;;;;;;4893903;29;20508;-58
2022/06/14 06:26:08;;;;;;;6.20;1.83;;;12.50;99.90;;;;;;4890444;29;20052;-58
2022/06/14 06:28:42;;;;;;;6.63;2.40;;;12.50;99.90;;;;;;4891202;29;20040;-58
2022/06/14 06:31:33;;;;;;;8.25;2.33;;;12.50;99.90;;;;;;4879134;29;20041;-58
2022/06/14 06:34:04;;;;;;;6.85;2.08;;;12.60;99.90;;;;;;4893844;29;20056;-59
2022/06/14 06:36:43;;;;;;;12.73;2.20;;;12.60;99.90;;;;;;4876671;29;20057;-57
2022/06/14 06:39:50;;;;;;;8.93;1.92;;;12.70;99.90;;;;;;4888756;29;20063;-58
2022/06/14 06:42:39;;;;;;;5.38;2.08;;;12.70;99.90;;;;;;4877471;29;20044;-58
2022/06/14 06:45:08;;;;;;;5.20;2.65;;;12.80;99.90;;;;;;4886305;29;20061;-58
2022/06/14 06:47:45;;;;;;;7.70;2.37;;;12.90;99.90;;;;;;4891186;29;20036;-58
2022/06/14 06:50:26;;;;;;;5.97;2.20;;;12.90;99.90;;;;;;4892868;29;20063;-58
2022/06/14 06:53:02;;;;;;;6.40;2.00;;;13.00;99.90;;;;;;4889066;29;20041;-58
2022/06/14 06:55:53;;;;;;;6.40;1.95;;;13.10;99.90;;;;;;4891125;29;20060;-58
2022/06/14 06:58:50;;;;;;;9.15;2.40;;;13.30;99.90;;;;;;4891776;29;20052;-57
2022/06/14 07:01:35;;;;;;;4.85;1.88;;;13.40;99.90;;;;;;4891764;29;20497;-57
2022/06/14 07:04:12;;;;;;;13.63;2.20;;;13.50;99.90;;;;;;4888598;29;20521;-57
2022/06/14 07:06:41;;;;;;;5.65;2.58;;;13.60;99.90;;;;;;4879405;29;20045;-58
2022/06/14 07:09:25;;;;;;;4.22;1.80;;;13.70;99.90;;;;;;4886862;29;20432;-58
2022/06/14 07:12:08;;;;;;;7.97;2.00;;;13.80;99.90;;;;;;4891132;29;20049;-57
2022/06/14 07:14:41;;;;;;;14.10;1.60;;;13.90;99.90;;;;;;4883489;29;20786;-58
2022/06/14 07:17:28;;;;;;;8.48;2.30;;;14.10;99.90;;;;;;4880802;29;20045;-58
2022/06/14 07:20:21;;;;;;;5.68;1.80;;;14.20;99.90;;;;;;4889941;29;20049;-57
2022/06/14 07:22:54;;;;;;;8.50;1.80;;;14.30;99.90;;;;;;4885391;29;20048;-58
2022/06/14 07:25:36;;;;;;;6.43;1.50;;;14.40;99.90;;;;;;4891050;29;20047;-59
2022/06/14 07:28:09;;;;;;;4.07;1.60;;;14.50;99.90;;;;;;4884779;29;20044;-58
2022/06/14 07:30:40;;;;;;;5.97;1.70;;;14.60;99.90;;;;;;4890114;29;20052;-57
2022/06/14 07:33:10;;;;;;;7.20;1.95;;;14.70;99.90;;;;;;4888404;29;20067;-60
2022/06/14 07:35:50;;;;;;;6.53;1.95;;;14.80;99.90;;;;;;4878897;29;20048;-57
2022/06/14 07:38:38;;;;;;;6.25;1.95;;;15.00;99.90;;;;;;4884506;29;20064;-56
2022/06/14 07:41:30;;;;;;;3.13;1.58;;;15.00;99.90;;;;;;4876533;29;20056;-58
2022/06/14 07:44:03;;;;;;;7.82;2.90;;;15.10;99.90;;;;;;4888227;29;20071;-59
2022/06/14 07:47:09;;;;;;;4.90;1.60;;;15.10;99.90;;;;;;4886252;29;20397;-57
2022/06/14 07:50:02;;;;;;;4.43;1.40;;;15.20;99.90;;;;;;4854616;29;20057;-58
2022/06/14 07:52:45;;;;;;;3.67;1.50;;;15.20;99.90;;;;;;4883860;29;20052;-56
2022/06/14 07:55:21;;;;;;;7.60;2.13;;;15.20;99.90;;;;;;4891547;29;20055;-58
2022/06/14 07:57:57;;;;;;;6.82;1.80;;;15.30;99.90;;;;;;4892196;29;20056;-58
2022/06/14 08:03:44;;;;;;;14.80;2.47;;;15.40;99.90;;;;;;4888651;29;20049;-59
2022/06/14 08:06:23;;;;;;;15.52;2.50;;;15.50;99.90;;;;;;4888738;29;20055;-57
2022/06/14 08:09:14;;;;;;;7.93;2.13;;;15.60;99.90;;;;;;4881764;29;20609;-59
2022/06/14 08:11:53;;;;;;;9.20;1.70;;;15.70;99.90;;;;;;4880766;29;20056;-58
2022/06/14 08:14:44;;;;;;;8.20;1.65;;;15.70;99.90;;;;;;4892259;29;20055;-58
2022/06/14 08:17:17;;;;;;;6.18;1.98;;;15.80;99.90;;;;;;4886099;29;20048;-58
2022/06/14 08:19:54;;;;;;;6.57;1.70;;;15.80;99.90;;;;;;4889966;29;20052;-58
2022/06/14 08:22:32;;;;;;;9.18;2.25;;;15.80;99.90;;;;;;4891100;29;20052;-58
2022/06/14 08:25:10;;;;;;;6.18;1.95;;;15.90;99.90;;;;;;4887884;29;20061;-58
2022/06/14 08:27:47;;;;;;;4.38;1.50;;;15.90;99.90;;;;;;4908277;29;20053;-58
2022/06/14 08:30:20;;;;;;;6.72;1.83;;;16.00;99.90;;;;;;4896050;29;20064;-57
2022/06/14 08:32:58;;;;;;;5.75;1.40;;;16.00;99.90;;;;;;4896542;29;20063;-59
2022/06/14 08:35:41;;;;;;;6.15;1.27;;;16.10;99.90;;;;;;4898026;29;20053;-58
2022/06/14 08:38:21;;;;;;;5.20;1.50;;;16.10;99.90;;;;;;4895183;29;20052;-57
2022/06/14 08:41:01;;;;;;;7.53;1.67;;;16.20;99.90;;;;;;4895028;29;20053;-58
2022/06/14 08:43:43;;;;;;;3.63;1.30;;;16.20;99.90;;;;;;4890462;29;20045;-57
2022/06/14 08:46:19;;;;;;;5.63;1.38;;;16.30;99.90;;;;;;4892227;29;20048;-58
2022/06/14 08:49:11;;;;;;;5.00;1.45;;;16.30;99.90;;;;;;4887296;29;20479;-58
2022/06/14 08:52:21;;;;;;;5.13;1.50;;;16.40;99.90;;;;;;4892890;29;20195;-58
2022/06/14 08:55:10;;;;;;;7.57;1.90;;;16.40;99.90;;;;;;4875173;29;20053;-58
2022/06/14 08:58:08;;;;;;;2.00;1.30;;;16.50;99.90;;;;;;4894884;29;20493;-58
2022/06/14 09:00:43;;;;;;;7.03;1.48;;;16.70;99.90;;;;;;4896424;29;20139;-59
2022/06/14 09:03:17;;;;;;;3.90;1.02;;;16.80;98.90;;;;;;4889156;29;20434;-57
2022/06/14 09:06:18;;;;;;;12.18;2.65;;;16.70;98.00;;;;;;4895911;29;20406;-59
2022/06/14 09:09:10;;;;;;;4.28;1.50;;;16.70;98.50;;;;;;4892892;29;20067;-59
2022/06/14 09:12:18;;;;;;;5.55;1.52;;;16.70;98.90;;;;;;4896890;29;20063;-57
2022/06/14 09:15:21;;;;;;;4.15;1.30;;;16.80;99.10;;;;;;4877322;29;20545;-58
2022/06/14 09:18:04;;;;;;;10.18;3.53;;;16.90;99.50;;;;;;4889946;29;20049;-59
2022/06/14 09:20:48;;;;;;;14.85;2.63;;;17.00;99.30;;;;;;4894565;29;20495;-59
2022/06/14 09:23:17;;;;;;;55.85;4.32;;;17.00;99.40;;;;;;4895029;29;20049;-59
2022/06/14 09:25:54;;;;;;;10.65;2.17;;;17.10;99.50;;;;;;4893147;29;20056;-59
2022/06/14 09:28:48;;;;;;;4.00;1.25;;;17.20;99.70;;;;;;4888234;29;20656;-59
2022/06/14 09:31:21;;;;;;;6.30;1.60;;;17.20;99.40;;;;;;4894377;29;20041;-59
2022/06/14 09:34:21;;;;;;;4.20;1.55;;;17.30;99.00;;;;;;4886629;29;20047;-58
2022/06/14 09:37:08;;;;;;;6.93;1.75;;;17.20;98.50;;;;;;4891700;29;20396;-58
2022/06/14 09:40:17;;;;;;;4.85;1.40;;;17.10;98.90;;;;;;4890732;29;20055;-59
2022/06/14 09:43:08;;;;;;;4.85;1.60;;;17.10;99.20;;;;;;4863291;29;20407;-59
2022/06/14 09:46:04;;;;;;;3.35;1.10;;;17.30;99.20;;;;;;4895584;29;20060;-59
2022/06/14 09:49:00;;;;;;;6.18;1.23;;;17.40;99.10;;;;;;4894859;29;20049;-59
2022/06/14 09:51:33;;;;;;;9.98;1.23;;;17.70;98.70;;;;;;4894671;29;20067;-58
2022/06/14 09:54:21;;;;;;;5.18;1.27;;;18.10;98.40;;;;;;4889087;29;20041;-58
2022/06/14 09:57:24;;;;;;;4.85;2.72;;;18.40;96.40;;;;;;4888280;29;20056;-59
2022/06/14 10:00:16;;;;;;;2.08;1.40;;;18.60;96.10;;;;;;4876515;29;20052;-58
2022/06/14 10:03:21;;;;;;;9.07;1.52;;;18.70;95.40;;;;;;4892971;29;20048;-58
2022/06/14 10:06:18;;;;;;;7.90;1.95;;;18.70;94.80;;;;;;4895484;29;20053;-58
2022/06/14 10:08:54;;;;;;;4.80;1.20;;;18.60;94.90;;;;;;4892097;29;20056;-57
2022/06/14 10:11:31;;;;;;;4.20;1.40;;;18.50;94.40;;;;;;4880148;29;20393;-59
2022/06/14 10:14:06;;;;;;;8.23;1.70;;;18.40;94.60;;;;;;4883797;29;20049;-59
2022/06/14 10:16:49;;;;;;;6.20;1.42;;;18.30;95.30;;;;;;4882375;29;20052;-58
2022/06/14 10:19:20;;;;;;;6.38;1.30;;;18.40;94.80;;;;;;4894827;29;20056;-59
2022/06/14 10:22:18;;;;;;;2.35;1.23;;;18.60;94.70;;;;;;4893489;29;20060;-59
2022/06/14 10:25:13;;;;;;;6.32;1.63;;;18.90;95.20;;;;;;4889551;29;20045;-58
2022/06/14 10:28:12;;;;;;;4.40;1.20;;;19.20;94.50;;;;;;4877852;29;20444;-58
2022/06/14 10:31:05;;;;;;;5.88;1.40;;;19.50;93.70;;;;;;4882697;29;20044;-57
2022/06/14 10:33:46;;;;;;;4.40;1.13;;;19.70;93.20;;;;;;4891425;29;20041;-59
2022/06/14 10:36:28;;;;;;;3.58;1.35;;;19.80;92.50;;;;;;4894324;29;20056;-59
2022/06/14 10:39:15;;;;;;;6.22;1.25;;;19.80;91.80;;;;;;4891685;29;20493;-59
2022/06/14 10:42:08;;;;;;;4.90;1.77;;;19.60;91.80;;;;;;4895469;29;20068;-59
2022/06/14 10:44:43;;;;;;;3.75;1.15;;;19.50;91.90;;;;;;4894403;29;20049;-56
2022/06/14 10:47:30;;;;;;;2.95;1.30;;;19.60;92.50;;;;;;4892986;29;20512;-57
2022/06/14 10:50:10;;;;;;;6.68;1.52;;;19.70;92.10;;;;;;4892955;29;20048;-58
2022/06/14 10:52:54;;;;;;;3.75;1.30;;;19.90;91.40;;;;;;4893363;29;20055;-59
2022/06/14 10:55:40;;;;;;;5.57;1.35;;;19.90;91.10;;;;;;4891963;29;20059;-59
2022/06/14 10:58:35;;;;;;;5.82;1.88;;;19.80;91.00;;;;;;4891477;29;20543;-59
2022/06/14 11:01:09;;;;;;;4.50;1.50;;;19.80;90.70;;;;;;4893069;29;20055;-59
2022/06/14 11:04:02;;;;;;;4.47;1.42;;;19.60;90.50;;;;;;4893886;29;20044;-58
2022/06/14 11:06:42;;;;;;;5.13;1.65;;;19.50;91.10;;;;;;4893090;29;20060;-58
2022/06/14 11:10:03;;;;;;;4.30;1.40;;;19.60;91.20;;;;;;4870816;29;20057;-59
2022/06/14 11:12:34;;;;;;;4.32;0.93;;;19.60;90.80;;;;;;4865563;29;20060;-59
2022/06/14 11:15:05;;;;;;;6.97;1.65;;;19.70;90.70;;;;;;4878455;29;20061;-58
2022/06/14 11:17:46;;;;;;;5.40;1.58;;;19.80;90.50;;;;;;4890854;29;20048;-58
2022/06/14 11:20:20;;;;;;;2.55;1.50;;;19.90;90.20;;;;;;4893988;29;20056;-58
2022/06/14 11:23:10;;;;;;;8.20;1.70;;;19.90;90.00;;;;;;4897614;29;20055;-57
2022/06/14 11:25:53;;;;;;;4.97;1.00;;;19.80;89.30;;;;;;4891909;29;20055;-58
2022/06/14 11:28:36;;;;;;;4.75;1.13;;;19.70;89.50;;;;;;4890536;29;20049;-58
2022/06/14 11:31:44;;;;;;;5.50;1.30;;;19.50;90.10;;;;;;4876301;29;20044;-58
2022/06/14 11:34:15;;;;;;;5.88;1.45;;;19.50;90.00;;;;;;4849402;29;20045;-58
2022/06/14 11:37:03;;;;;;;4.07;1.40;;;19.50;90.10;;;;;;4851622;29;20068;-58
2022/06/14 11:39:48;;;;;;;1.60;1.30;;;19.70;89.30;;;;;;4877881;29;20056;-58
2022/06/14 11:42:24;;;;;;;6.30;1.33;;;20.00;88.80;;;;;;4890536;29;20119;-57
2022/06/14 11:45:13;;;;;;;5.25;1.23;;;20.30;87.60;;;;;;4892101;29;20409;-58
2022/06/14 11:47:46;;;;;;;4.47;1.13;;;20.60;87.20;;;;;;4886764;29;20053;-58
2022/06/14 11:50:49;;;;;;;2.85;1.30;;;21.00;84.80;;;;;;4888696;29;20302;-58
2022/06/14 11:53:36;;;;;;;3.78;1.17;;;21.30;84.10;;;;;;4881445;29;20048;-58
2022/06/14 11:56:28;;;;;;;4.18;1.52;;;21.50;83.00;;;;;;4887589;29;20052;-57
2022/06/14 11:59:11;;;;;;;4.95;1.40;;;21.70;82.80;;;;;;4886285;29;20041;-57
2022/06/14 12:01:50;;;;;;;5.47;1.67;;;21.90;81.50;;;;;;4896537;29;20481;-59
2022/06/14 12:04:32;;;;;;;2.22;1.10;;;22.20;81.60;;;;;;4883502;29;20049;-57
2022/06/14 12:07:08;;;;;;;3.30;1.20;;;22.50;79.90;;;;;;4886442;29;20417;-57
2022/06/14 12:09:39;;;;;;;6.70;1.23;;;22.80;79.00;;;;;;4881899;29;20041;-58
2022/06/14 12:12:26;;;;;;;3.25;1.10;;;23.10;77.60;;;;;;4889098;29;20044;-58
2022/06/14 12:15:02;;;;;;;4.40;1.10;;;23.30;73.30;;;;;;4895698;29;20603;-58
2022/06/14 12:17:47;;;;;;;5.85;1.60;;;23.50;74.20;;;;;;4891664;29;20044;-58
2022/06/14 12:20:20;;;;;;;2.22;1.42;;;23.70;72.10;;;;;;4883471;29;20044;-58
2022/06/14 12:23:01;;;;;;;4.10;1.15;;;23.90;71.90;;;;;;4887549;29;20052;-58
2022/06/14 12:28:52;;;;;;;5.63;1.55;;;24.20;69.50;;;;;;4886251;29;20055;-57
2022/06/14 12:31:23;;;;;;;8.18;1.88;;;24.50;70.00;;;;;;4893483;29;20052;-58
2022/06/14 12:33:56;;;;;;;4.97;1.30;;;24.90;69.10;;;;;;4895197;29;20053;-58
2022/06/14 12:36:37;;;;;;;2.40;1.50;;;25.20;66.00;;;;;;4888766;29;20489;-57
2022/06/14 12:39:12;;;;;;;11.15;1.58;;;25.30;64.70;;;;;;4896696;29;20056;-58
2022/06/14 12:41:53;;;;;;;9.18;1.70;;;25.60;64.80;;;;;;4891636;29;20043;-59
2022/06/14 12:44:48;;;;;;;9.82;1.88;;;25.70;65.20;;;;;;4890065;29;20045;-58
2022/06/14 12:47:30;;;;;;;6.88;1.73;;;26.00;63.30;;;;;;4894532;29;21118;-59
2022/06/14 12:50:16;;;;;;;3.97;1.48;;;26.10;63.20;;;;;;4893228;29;20055;-57
2022/06/14 12:52:51;;;;;;;2.63;1.65;;;26.00;62.20;;;;;;4888559;29;20048;-57
2022/06/14 12:55:26;;;;;;;3.47;1.55;;;26.00;61.70;;;;;;4891459;29;20057;-57
2022/06/14 12:58:13;;;;;;;4.90;1.80;;;25.90;62.60;;;;;;4890527;29;20048;-58
2022/06/14 13:00:46;;;;;;;8.13;1.80;;;25.90;60.20;;;;;;4877608;29;20057;-57
2022/06/14 13:03:45;;;;;;;13.45;2.17;;;25.70;61.50;;;;;;4887394;29;20052;-57
2022/06/14 13:06:27;;;;;;;7.82;1.95;;;25.70;60.90;;;;;;4893640;29;20515;-57
2022/06/14 13:09:01;;;;;;;2.28;1.35;;;26.00;60.70;;;;;;4895442;29;20118;-57
2022/06/14 13:11:46;;;;;;;3.67;1.23;;;26.30;59.60;;;;;;4895487;29;20052;-57
2022/06/14 13:14:17;;;;;;;3.33;1.30;;;26.50;58.80;;;;;;4889621;29;20041;-58
2022/06/14 13:16:55;;;;;;;4.43;1.30;;;26.60;58.00;;;;;;4878381;29;20065;-57
2022/06/14 13:19:33;;;;;;;3.30;1.20;;;26.60;57.20;;;;;;4891701;29;20053;-59
2022/06/14 13:22:20;;;;;;;3.72;1.35;;;26.50;57.10;;;;;;4893816;29;20048;-58
2022/06/14 13:24:53;;;;;;;14.80;1.70;;;26.10;56.50;;;;;;4896863;29;20158;-58
2022/06/14 13:27:34;;;;;;;5.10;1.50;;;25.80;57.70;;;;;;4894639;29;20513;-58
2022/06/14 13:30:31;;;;;;;5.13;1.20;;;25.80;58.40;;;;;;4896728;29;20053;-58
2022/06/14 13:33:36;;;;;;;6.40;1.58;;;25.80;56.40;;;;;;4889558;29;20493;-58
2022/06/14 13:36:29;;;;;;;6.00;1.10;;;25.70;56.90;;;;;;4894638;29;20525;-58
2022/06/14 13:39:10;;;;;;;5.10;1.25;;;25.70;57.60;;;;;;4884752;29;20053;-58
2022/06/14 13:42:00;;;;;;;10.77;1.48;;;25.90;56.60;;;;;;4877662;29;20053;-59
2022/06/14 13:45:15;;;;;;;15.77;1.85;;;26.00;57.10;;;;;;4890012;29;20057;-59
2022/06/14 13:47:55;;;;;;;12.07;1.45;;;26.30;55.70;;;;;;4876487;29;20049;-58
2022/06/14 13:50:35;;;;;;;12.18;1.38;;;26.60;55.90;;;;;;4895350;29;20080;-58
2022/06/14 13:53:15;;;;;;;8.80;1.20;;;27.00;55.90;;;;;;4891624;29;20485;-59
2022/06/14 13:55:50;;;;;;;6.35;1.30;;;27.40;56.30;;;;;;4892930;29;20036;-58
2022/06/14 13:58:30;;;;;;;6.35;1.20;;;27.90;54.80;;;;;;4893998;29;20045;-59
2022/06/14 14:01:26;;;;;;;5.35;1.20;;;27.90;53.30;;;;;;4896567;29;20081;-59
2022/06/14 14:04:15;;;;;;;6.35;0.88;;;27.70;54.20;;;;;;4889729;29;20508;-59
2022/06/14 14:07:26;;;;;;;4.82;1.00;;;27.50;54.60;;;;;;4895012;29;20060;-58
2022/06/14 14:10:08;;;;;;;4.70;1.45;;;27.70;55.80;;;;;;4852946;29;20053;-58
2022/06/14 14:12:36;;;;;;;5.50;1.10;;;28.00;53.10;;;;;;4887861;29;20509;-58